createdAt,value
2018-02-04T00:02:21.014Z,98276.27
2018-02-04T00:04:48.956Z,98262.09
2018-02-04T00:07:18.236Z,98283.47
2018-02-04T00:09:46.331Z,98279.16
2018-02-04T00:12:15.322Z,98252.75
2018-02-04T00:14:44.180Z,98255.93
2018-02-04T00:17:12.104Z,98261.96
2018-02-04T00:19:39.872Z,98264.20
2018-02-04T00:22:08.150Z,98272.59
2018-02-04T00:24:35.713Z,98270.70
2018-02-04T00:27:03.240Z,98289.65
2018-02-04T00:29:30.806Z,98284.59
2018-02-04T00:31:58.416Z,98273.07
2018-02-04T00:34:25.942Z,98265.24
2018-02-04T00:36:53.513Z,98255.63
2018-02-04T00:39:21.899Z,98263.52
2018-02-04T00:41:49.482Z,98274.93
2018-02-04T00:44:17.017Z,98276.06
2018-02-04T00:46:44.541Z,98264.22
2018-02-04T00:49:12.117Z,98274.55
2018-02-04T00:51:39.655Z,98280.56
2018-02-04T00:54:07.616Z,98256.64
2018-02-04T00:56:35.193Z,98256.23
2018-02-04T00:59:02.789Z,98254.36
2018-02-04T01:01:30.357Z,98273.77
2018-02-04T01:03:57.946Z,98265.71
2018-02-04T01:06:26.493Z,98268.34
2018-02-04T01:08:54.054Z,98264.48
2018-02-04T01:11:21.631Z,98258.92
2018-02-04T01:13:49.157Z,98270.78
2018-02-04T01:16:16.735Z,98281.19
2018-02-04T01:18:44.675Z,98273.81
2018-02-04T01:21:12.242Z,98266.55
2018-02-04T01:23:40.179Z,98271.55
2018-02-04T01:26:08.020Z,98263.77
2018-02-04T01:28:35.545Z,98270.45
2018-02-04T01:31:03.115Z,98272.31
2018-02-04T01:33:30.942Z,98250.81
2018-02-04T01:35:58.833Z,98247.80
2018-02-04T01:38:26.734Z,98263.66
2018-02-04T01:40:54.327Z,98281.27
2018-02-04T01:43:21.863Z,98286.11
2018-02-04T01:45:49.719Z,98288.81
2018-02-04T01:48:17.662Z,98283.48
2018-02-04T01:50:45.230Z,98290.12
2018-02-04T01:53:12.814Z,98282.64
2018-02-04T01:55:40.346Z,98282.25
2018-02-04T01:58:08.199Z,98278.36
2018-02-04T02:00:35.773Z,98281.54
2018-02-04T02:03:03.347Z,98277.17
2018-02-04T02:05:30.938Z,98279.41
2018-02-04T02:07:58.470Z,98292.02
2018-02-04T02:10:25.998Z,98298.96
2018-02-04T02:12:53.570Z,98280.48
2018-02-04T02:15:21.361Z,98275.64
2018-02-04T02:17:48.933Z,98281.74
2018-02-04T02:20:16.467Z,98285.70
2018-02-04T02:22:44.342Z,98299.02
2018-02-04T02:25:12.731Z,98297.00
2018-02-04T02:27:40.480Z,98282.94
2018-02-04T02:30:08.016Z,98281.00
2018-02-04T02:32:36.621Z,98285.37
2018-02-04T02:35:04.213Z,98296.44
2018-02-04T02:37:31.747Z,98298.24
2018-02-04T02:39:59.294Z,98304.70
2018-02-04T02:42:26.857Z,98302.06
2018-02-04T02:44:54.390Z,98299.14
2018-02-04T02:47:22.288Z,98295.19
2018-02-04T02:49:49.870Z,98300.91
2018-02-04T02:52:17.417Z,98305.81
2018-02-04T02:54:44.954Z,98301.86
2018-02-04T02:57:12.522Z,98307.55
2018-02-04T02:59:40.098Z,98302.28
2018-02-04T03:02:07.766Z,98307.19
2018-02-04T03:04:35.339Z,98324.41
2018-02-04T03:07:02.875Z,98331.11
2018-02-04T03:09:30.458Z,98330.27
2018-02-04T03:11:57.986Z,98335.33
2018-02-04T03:14:25.852Z,98341.91
2018-02-04T03:16:53.417Z,98341.22
2018-02-04T03:19:20.988Z,98344.34
2018-02-04T03:21:48.518Z,98356.25
2018-02-04T03:24:16.309Z,98355.08
2018-02-04T03:26:43.829Z,98359.56
2018-02-04T03:29:11.362Z,98358.06
2018-02-04T03:31:39.429Z,98359.14
2018-02-04T03:34:06.953Z,98371.59
2018-02-04T03:36:34.527Z,98373.82
2018-02-04T03:39:02.110Z,98377.02
2018-02-04T03:41:29.650Z,98385.91
2018-02-04T03:43:57.552Z,98394.22
2018-02-04T03:46:25.085Z,98396.35
2018-02-04T03:48:52.641Z,98400.20
2018-02-04T03:51:20.214Z,98406.95
2018-02-04T03:53:48.547Z,98406.74
2018-02-04T03:56:16.506Z,98421.97
2018-02-04T03:58:44.030Z,98426.50
2018-02-04T04:01:11.585Z,98431.56
2018-02-04T04:03:39.152Z,98440.69
2018-02-04T04:06:06.718Z,98447.56
2018-02-04T04:08:34.310Z,98463.84
2018-02-04T04:11:02.026Z,98472.20
2018-02-04T04:13:29.556Z,98474.89
2018-02-04T04:15:57.817Z,98476.30
2018-02-04T04:18:25.358Z,98479.40
2018-02-04T04:20:53.031Z,98484.77
2018-02-04T04:23:20.801Z,98485.00
2018-02-04T04:25:48.566Z,98493.99
2018-02-04T04:37:24.509Z,98518.98
2018-02-04T04:39:52.078Z,98513.59
2018-02-04T04:42:19.645Z,98517.56
2018-02-04T04:44:47.187Z,98527.91
2018-02-04T04:47:15.128Z,98537.63
2018-02-04T04:49:42.659Z,98537.03
2018-02-04T04:52:10.261Z,98537.70
2018-02-04T04:54:37.793Z,98544.64
2018-02-04T04:57:05.330Z,98543.73
2018-02-04T04:59:33.092Z,98557.95
2018-02-04T05:02:00.671Z,98569.94
2018-02-04T05:04:28.206Z,98583.33
2018-02-04T05:06:55.769Z,98584.48
2018-02-04T05:09:23.298Z,98587.00
2018-02-04T05:11:51.075Z,98590.05
2018-02-04T05:14:18.607Z,98589.58
2018-02-04T05:16:46.182Z,98594.51
2018-02-04T05:19:13.706Z,98598.91
2018-02-04T05:21:41.335Z,98606.47
2018-02-04T05:24:08.859Z,98609.73
2018-02-04T05:26:36.640Z,98617.38
2018-02-04T05:29:04.205Z,98614.72
2018-02-04T05:31:31.738Z,98619.24
2018-02-04T05:33:59.538Z,98606.80
2018-02-04T05:36:27.341Z,98605.70
2018-02-04T05:38:54.874Z,98607.73
2018-02-04T05:41:22.438Z,98607.02
2018-02-04T05:43:50.500Z,98619.24
2018-02-04T05:46:18.098Z,98632.72
2018-02-04T05:48:45.654Z,98639.42
2018-02-04T05:51:13.376Z,98642.12
2018-02-04T05:53:41.076Z,98651.92
2018-02-04T05:56:08.616Z,98658.52
2018-02-04T05:58:37.669Z,98666.30
2018-02-04T06:01:05.233Z,98674.50
2018-02-04T06:03:32.758Z,98673.83
2018-02-04T06:06:00.331Z,98675.94
2018-02-04T06:08:27.972Z,98682.02
2018-02-04T06:10:55.543Z,98694.57
2018-02-04T06:13:23.075Z,98691.11
2018-02-04T06:15:50.641Z,98687.23
2018-02-04T06:18:18.172Z,98689.64
2018-02-04T06:20:45.774Z,98680.86
2018-02-04T06:23:13.750Z,98680.38
2018-02-04T06:25:41.305Z,98690.23
2018-02-04T06:28:08.901Z,98689.91
2018-02-04T06:30:36.439Z,98702.31
2018-02-04T06:33:04.047Z,98725.27
2018-02-04T06:35:31.839Z,98740.06
2018-02-04T06:37:59.417Z,98730.84
2018-02-04T06:40:26.998Z,98738.93
2018-02-04T06:42:54.592Z,98755.85
2018-02-04T06:45:22.134Z,98771.61
2018-02-04T06:47:49.769Z,98770.41
2018-02-04T06:50:17.354Z,98775.84
2018-02-04T06:52:45.581Z,98766.03
2018-02-04T06:55:13.101Z,98763.59
2018-02-04T06:57:41.607Z,98770.80
2018-02-04T07:00:22.323Z,98767.63
2018-02-04T07:02:49.890Z,98774.27
2018-02-04T07:05:17.472Z,98771.69
2018-02-04T07:07:45.372Z,98779.12
2018-02-04T07:10:13.448Z,98780.89
2018-02-04T07:12:41.016Z,98791.64
2018-02-04T07:15:08.590Z,98784.73
2018-02-04T07:17:36.122Z,98799.41
2018-02-04T07:20:03.751Z,98807.66
2018-02-04T07:22:31.800Z,98802.16
2018-02-04T07:24:59.692Z,98800.01
2018-02-04T07:27:27.258Z,98809.88
2018-02-04T07:29:54.835Z,98806.53
2018-02-04T07:32:22.407Z,98816.86
2018-02-04T07:34:50.001Z,98801.61
2018-02-04T07:37:17.580Z,98824.39
2018-02-04T07:39:45.389Z,98819.36
2018-02-04T07:42:13.152Z,98820.54
2018-02-04T07:44:40.690Z,98815.05
2018-02-04T07:47:08.256Z,98828.06
2018-02-04T07:49:35.794Z,98833.30
2018-02-04T07:52:03.360Z,98841.59
2018-02-04T07:54:31.625Z,98846.62
2018-02-04T07:56:59.395Z,98847.57
2018-02-04T07:59:26.931Z,98844.78
2018-02-04T08:01:54.701Z,98843.13
2018-02-04T08:04:22.279Z,98852.52
2018-02-04T08:06:49.819Z,98864.30
2018-02-04T08:09:17.403Z,98860.30
2018-02-04T08:11:44.977Z,98868.30
2018-02-04T08:14:12.819Z,98868.56
2018-02-04T08:16:40.936Z,98887.94
2018-02-04T08:19:09.357Z,98877.27
2018-02-04T08:21:36.930Z,98891.79
2018-02-04T08:24:04.475Z,98898.47
2018-02-04T08:26:32.053Z,98893.92
2018-02-04T08:28:59.592Z,98890.76
2018-02-04T08:31:27.158Z,98899.16
2018-02-04T08:33:54.681Z,98900.34
2018-02-04T08:36:23.213Z,98909.69
2018-02-04T08:38:51.115Z,98901.17
2018-02-04T08:41:18.699Z,98886.52
2018-02-04T08:43:46.231Z,98884.67
2018-02-04T08:46:13.771Z,98885.98
2018-02-04T08:48:41.355Z,98898.28
2018-02-04T08:51:08.925Z,98894.01
2018-02-04T08:53:37.435Z,98899.09
2018-02-04T08:56:05.005Z,98898.05
2018-02-04T08:58:32.577Z,98896.02
2018-02-04T09:01:00.675Z,98899.98
2018-02-04T09:03:28.255Z,98924.89
2018-02-04T09:05:55.853Z,98933.44
2018-02-04T09:08:23.396Z,98931.08
2018-02-04T09:10:51.371Z,98937.70
2018-02-04T09:13:19.200Z,98937.98
2018-02-04T09:15:46.747Z,98947.88
2018-02-04T09:18:14.341Z,98946.46
2018-02-04T09:20:41.877Z,98961.89
2018-02-04T09:23:09.949Z,98969.73
2018-02-04T09:25:38.054Z,98969.41
2018-02-04T09:28:05.578Z,98976.59
2018-02-04T09:30:33.440Z,98969.27
2018-02-04T09:33:01.006Z,98963.66
2018-02-04T09:35:29.152Z,98967.81
2018-02-04T09:37:57.312Z,98971.27
2018-02-04T09:40:24.898Z,98974.97
2018-02-04T09:42:52.474Z,98973.71
2018-02-04T09:45:20.185Z,98971.26
2018-02-04T09:47:48.023Z,98975.95
2018-02-04T09:50:16.247Z,98989.30
2018-02-04T09:52:44.076Z,98993.61
2018-02-04T09:55:11.650Z,99002.27
2018-02-04T09:57:39.223Z,98977.76
2018-02-04T10:00:07.618Z,98971.42
2018-02-04T10:02:35.221Z,98948.55
2018-02-04T10:05:02.751Z,98955.82
2018-02-04T10:07:31.281Z,98957.52
2018-02-04T10:09:58.851Z,98950.22
2018-02-04T10:12:26.446Z,98962.14
2018-02-04T10:14:53.981Z,98934.07
2018-02-04T10:17:21.659Z,98942.32
2018-02-04T10:19:50.051Z,98922.14
2018-02-04T10:22:18.019Z,98947.13
2018-02-04T10:24:45.604Z,98940.59
2018-02-04T10:27:13.192Z,98942.55
2018-02-04T10:29:40.814Z,98925.56
2018-02-04T10:32:08.855Z,98938.59
2018-02-04T10:34:36.394Z,98918.91
2018-02-04T10:37:04.477Z,98932.25
2018-02-04T10:39:32.247Z,98922.84
2018-02-04T10:41:59.777Z,98954.89
2018-02-04T10:44:29.867Z,98926.69
2018-02-04T10:46:57.460Z,98960.79
2018-02-04T10:49:25.667Z,98934.02
2018-02-04T10:51:58.571Z,98944.64
2018-02-04T10:54:27.374Z,98941.05
2018-02-04T10:56:54.919Z,98929.80
2018-02-04T10:59:22.592Z,98931.34
2018-02-04T11:01:50.883Z,98927.75
2018-02-04T11:04:18.426Z,98929.45
2018-02-04T11:06:47.789Z,98938.04
2018-02-04T11:09:15.684Z,98920.27
2018-02-04T11:11:43.471Z,98921.86
2018-02-04T11:14:11.042Z,98920.23
2018-02-04T11:16:39.707Z,98930.71
2018-02-04T11:19:07.316Z,98932.09
2018-02-04T11:21:34.868Z,98935.05
2018-02-04T11:24:03.378Z,98937.66
2018-02-04T11:26:31.037Z,98946.20
2018-02-04T11:28:59.139Z,98946.69
2018-02-04T11:31:26.723Z,98951.31
2018-02-04T11:33:55.153Z,98951.17
2018-02-04T11:36:22.836Z,98953.84
2018-02-04T11:38:50.575Z,98946.73
2018-02-04T11:41:18.239Z,98944.61
2018-02-04T11:43:45.818Z,98956.97
2018-02-04T11:46:13.888Z,98962.23
2018-02-04T11:48:42.177Z,98954.93
2018-02-04T11:51:09.706Z,98956.91
2018-02-04T11:53:37.331Z,98957.05
2018-02-04T11:56:04.925Z,98976.17
2018-02-04T11:58:32.503Z,98963.78
2018-02-04T12:01:00.342Z,98974.27
2018-02-04T12:03:28.951Z,98963.06
2018-02-04T12:05:56.550Z,98965.00
2018-02-04T12:08:24.127Z,98962.87
2018-02-04T12:10:51.751Z,98960.89
2018-02-04T12:13:19.322Z,98963.14
2018-02-04T12:15:47.260Z,98965.34
2018-02-04T12:18:15.356Z,98966.23
2018-02-04T12:20:43.017Z,98977.25
2018-02-04T12:23:10.571Z,98957.41
2018-02-04T12:25:38.114Z,98948.64
2018-02-04T12:28:05.682Z,98954.42
2018-02-04T12:30:34.330Z,98964.52
2018-02-04T12:33:03.618Z,98980.48
2018-02-04T12:35:31.202Z,98979.34
2018-02-04T12:37:58.775Z,98969.66
2018-02-04T12:40:27.365Z,98973.12
2018-02-04T12:42:54.995Z,98970.50
2018-02-04T12:45:22.675Z,98975.75
2018-02-04T12:47:51.554Z,98975.05
2018-02-04T12:50:19.093Z,98978.59
2018-02-04T12:52:47.751Z,98975.34
2018-02-04T12:55:16.381Z,98969.98
2018-02-04T12:57:44.472Z,98975.06
2018-02-04T13:00:12.011Z,98983.27
2018-02-04T13:02:39.565Z,98974.73
2018-02-04T13:05:08.077Z,98975.09
2018-02-04T13:07:35.683Z,98973.89
2018-02-04T13:10:04.084Z,98973.11
2018-02-04T13:12:32.623Z,98979.71
2018-02-04T13:15:00.166Z,98978.67
2018-02-04T13:17:27.748Z,98976.95
2018-02-04T13:19:55.643Z,98974.73
2018-02-04T13:22:23.370Z,98974.52
2018-02-04T13:24:51.842Z,98977.83
2018-02-04T13:27:19.424Z,98973.95
2018-02-04T13:29:46.954Z,98966.70
2018-02-04T13:32:14.526Z,98973.20
2018-02-04T13:34:42.064Z,98978.03
2018-02-04T13:37:09.925Z,98977.77
2018-02-04T13:39:38.022Z,98973.55
2018-02-04T13:42:06.446Z,98974.58
2018-02-04T13:44:34.531Z,98978.77
2018-02-04T13:47:02.134Z,98981.80
2018-02-04T13:49:29.661Z,98984.02
2018-02-04T13:51:57.230Z,98993.19
2018-02-04T13:54:24.933Z,99000.78
2018-02-04T13:56:52.491Z,98997.92
2018-02-04T13:59:20.086Z,99000.82
2018-02-04T14:01:47.655Z,99014.39
2018-02-04T14:04:15.981Z,99008.77
2018-02-04T14:06:43.740Z,99025.36
2018-02-04T14:09:12.286Z,99015.38
2018-02-04T14:11:39.835Z,99024.14
2018-02-04T14:14:07.414Z,99030.93
2018-02-04T14:16:34.951Z,99035.00
2018-02-04T14:19:03.181Z,99041.55
2018-02-04T14:21:31.303Z,99046.50
2018-02-04T14:23:59.196Z,99049.91
2018-02-04T14:26:27.137Z,99053.81
2018-02-04T14:28:54.705Z,99059.44
2018-02-04T14:31:22.410Z,99063.00
2018-02-04T14:33:51.302Z,99072.28
2018-02-04T14:36:18.971Z,99070.49
2018-02-04T14:38:46.890Z,99068.98
2018-02-04T14:41:15.240Z,99069.88
2018-02-04T14:43:42.830Z,99075.39
2018-02-04T14:46:11.207Z,99074.95
2018-02-04T14:48:38.995Z,99082.25
2018-02-04T14:51:08.101Z,99085.68
2018-02-04T14:53:35.865Z,99078.74
2018-02-04T14:56:05.585Z,99081.13
2018-02-04T14:58:33.616Z,99077.44
2018-02-04T15:22:33.100Z,99093.72
2018-02-04T15:25:01.190Z,99110.83
2018-02-04T15:27:29.396Z,99113.91
2018-02-04T15:29:57.445Z,99119.75
2018-02-04T15:32:25.233Z,99134.19
2018-02-04T15:34:55.926Z,99140.44
2018-02-04T15:37:24.119Z,99147.13
2018-02-04T15:39:52.154Z,99154.13
2018-02-04T15:42:19.748Z,99163.68
2018-02-04T15:44:47.300Z,99164.58
2018-02-04T15:47:14.960Z,99179.24
2018-02-04T15:49:43.520Z,99175.27
2018-02-04T15:52:13.554Z,99188.88
2018-02-04T15:54:41.110Z,99189.13
2018-02-04T15:57:08.771Z,99192.09
2018-02-04T15:59:36.780Z,99202.53
2018-02-04T16:02:04.611Z,99195.17
2018-02-04T16:04:32.203Z,99211.74
2018-02-04T16:07:00.804Z,99225.17
2018-02-04T16:09:28.346Z,99235.92
2018-02-04T16:11:56.618Z,99241.28
2018-02-04T16:14:24.215Z,99253.17
2018-02-04T16:16:51.764Z,99258.71
2018-02-04T16:19:20.163Z,99262.75
2018-02-04T16:21:47.721Z,99265.96
2018-02-04T16:24:15.322Z,99270.09
2018-02-04T16:26:43.843Z,99270.88
2018-02-04T16:29:12.262Z,99285.35
2018-02-04T16:31:40.791Z,99292.87
2018-02-04T16:34:10.050Z,99305.61
2018-02-04T16:36:38.827Z,99310.27
2018-02-04T16:39:07.259Z,99318.85
2018-02-04T16:41:35.635Z,99319.76
2018-02-04T16:44:03.612Z,99325.84
2018-02-04T16:46:31.764Z,99326.45
2018-02-04T16:48:59.823Z,99338.05
2018-02-04T16:51:27.660Z,99349.42
2018-02-04T16:53:57.311Z,99344.98
2018-02-04T16:56:24.999Z,99348.77
2018-02-04T16:58:53.040Z,99356.36
2018-02-04T17:01:20.793Z,99349.92
2018-02-04T17:03:49.652Z,99354.98
2018-02-04T17:06:18.280Z,99368.48
2018-02-04T17:08:46.541Z,99371.20
2018-02-04T17:11:15.547Z,99364.59
2018-02-04T17:13:44.178Z,99365.78
2018-02-04T17:16:12.720Z,99360.48
2018-02-04T17:18:40.276Z,99360.58
2018-02-04T17:21:08.404Z,99365.72
2018-02-04T17:23:37.725Z,99366.59
2018-02-04T17:26:05.349Z,99377.88
2018-02-04T17:28:32.903Z,99384.22
2018-02-04T17:31:00.565Z,99388.89
2018-02-04T17:33:29.298Z,99388.49
2018-02-04T17:35:57.479Z,99388.85
2018-02-04T17:38:25.516Z,99390.36
2018-02-04T17:40:53.370Z,99399.39
2018-02-04T17:43:20.967Z,99393.67
2018-02-04T17:45:48.903Z,99405.84
2018-02-04T17:48:16.624Z,99417.95
2018-02-04T17:50:44.772Z,99425.35
2018-02-04T17:53:13.620Z,99428.63
2018-02-04T17:55:41.545Z,99431.86
2018-02-04T17:58:09.178Z,99432.09
2018-02-04T18:00:38.779Z,99436.67
2018-02-04T18:03:06.678Z,99442.48
2018-02-04T18:05:34.692Z,99440.41
2018-02-04T18:08:02.786Z,99445.66
2018-02-04T18:10:30.343Z,99456.69
2018-02-04T18:12:58.862Z,99480.93
2018-02-04T18:15:28.953Z,99468.95
2018-02-04T18:17:58.362Z,99476.94
2018-02-04T18:20:27.369Z,99484.60
2018-02-04T18:22:56.140Z,99495.46
2018-02-04T18:25:24.726Z,99497.45
2018-02-04T18:27:52.878Z,99499.13
2018-02-04T18:30:21.791Z,99493.77
2018-02-04T18:32:50.021Z,99497.97
2018-02-04T18:35:18.524Z,99485.48
2018-02-04T18:37:46.118Z,99491.34
2018-02-04T18:40:13.739Z,99475.48
2018-02-04T18:42:41.336Z,99482.36
2018-02-04T18:45:08.922Z,99487.92
2018-02-04T18:47:36.819Z,99499.08
2018-02-04T18:50:05.158Z,99505.92
2018-02-04T18:52:32.712Z,99514.14
2018-02-04T18:55:01.890Z,99514.17
2018-02-04T18:57:29.516Z,99523.22
2018-02-04T18:59:57.076Z,99524.12
2018-02-04T19:02:26.144Z,99532.98
2018-02-04T19:04:53.757Z,99535.81
2018-02-04T19:07:21.348Z,99535.77
2018-02-04T19:09:49.733Z,99541.77
2018-02-04T19:12:17.745Z,99549.08
2018-02-04T19:14:45.298Z,99553.98
2018-02-04T19:17:13.910Z,99551.09
2018-02-04T19:19:41.960Z,99549.47
2018-02-04T19:22:09.557Z,99553.38
2018-02-04T19:24:38.079Z,99551.17
2018-02-04T19:27:05.702Z,99544.25
2018-02-04T19:29:34.602Z,99545.70
2018-02-04T19:32:02.156Z,99565.55
2018-02-04T19:34:30.535Z,99559.64
2018-02-04T19:36:58.140Z,99561.84
2018-02-04T19:39:27.569Z,99564.06
2018-02-04T19:41:55.171Z,99568.81
2018-02-04T19:44:23.567Z,99581.92
2018-02-04T19:46:52.048Z,99579.20
2018-02-04T19:49:19.719Z,99576.44
2018-02-04T19:51:47.366Z,99564.16
2018-02-04T19:54:15.874Z,99567.80
2018-02-04T19:56:43.970Z,99570.55
2018-02-04T19:59:11.897Z,99571.83
2018-02-04T20:01:40.580Z,99577.42
2018-02-04T20:04:08.143Z,99580.39
2018-02-04T20:06:36.011Z,99584.60
2018-02-04T20:09:06.058Z,99591.08
2018-02-04T20:11:34.014Z,99595.09
2018-02-04T20:14:03.221Z,99595.44
2018-02-04T20:16:31.278Z,99598.30
2018-02-04T20:18:58.889Z,99601.31
2018-02-04T20:21:26.447Z,99614.34
2018-02-04T20:23:54.988Z,99622.08
2018-02-04T20:26:22.548Z,99632.59
2018-02-04T20:28:50.734Z,99638.44
2018-02-04T20:31:18.368Z,99636.52
2018-02-04T20:33:57.641Z,99637.94
2018-02-04T20:36:25.658Z,99647.58
2018-02-04T20:38:53.220Z,99655.38
2018-02-04T20:41:21.728Z,99655.23
2018-02-04T20:43:50.106Z,99659.02
2018-02-04T20:46:17.902Z,99662.90
2018-02-04T20:48:46.708Z,99670.66
2018-02-04T20:51:14.540Z,99673.61
2018-02-04T20:53:42.152Z,99679.48
2018-02-04T20:56:09.715Z,99669.91
2018-02-04T20:58:38.716Z,99673.98
2018-02-04T21:01:06.284Z,99680.03
2018-02-04T21:03:33.959Z,99693.57
2018-02-04T21:06:01.520Z,99693.25
2018-02-04T21:08:29.163Z,99694.61
2018-02-04T21:10:56.738Z,99700.36
2018-02-04T21:13:24.330Z,99717.84
2018-02-04T21:15:52.172Z,99711.90
2018-02-04T21:18:19.806Z,99714.91
2018-02-04T21:20:47.583Z,99712.56
2018-02-04T21:23:15.145Z,99706.48
2018-02-04T21:25:42.755Z,99711.77
2018-02-04T21:28:10.374Z,99715.45
2018-02-04T21:30:37.942Z,99710.66
2018-02-04T21:33:05.542Z,99706.34
2018-02-04T21:35:33.091Z,99706.05
2018-02-04T21:38:00.702Z,99708.80
2018-02-04T21:40:28.260Z,99723.92
2018-02-04T21:42:55.854Z,99722.09
2018-02-04T21:45:23.414Z,99734.17
2018-02-04T21:47:51.007Z,99734.60
2018-02-04T21:50:18.965Z,99741.91
2018-02-04T21:52:46.575Z,99751.08
2018-02-04T21:55:14.116Z,99754.02
2018-02-04T21:57:41.864Z,99764.05
2018-02-04T22:00:09.575Z,99768.99
2018-02-04T22:02:37.132Z,99778.16
2018-02-04T22:05:05.047Z,99780.19
2018-02-04T22:07:32.652Z,99779.14
2018-02-04T22:10:00.200Z,99784.94
2018-02-04T22:12:27.787Z,99786.25
2018-02-04T22:14:55.392Z,99786.38
2018-02-04T22:17:22.950Z,99795.13
2018-02-04T22:19:50.548Z,99801.24
2018-02-04T22:22:18.142Z,99806.16
2018-02-04T22:24:46.058Z,99813.30
2018-02-04T22:27:13.614Z,99813.80
2018-02-04T22:29:41.158Z,99824.87
2018-02-04T22:32:08.760Z,99825.27
2018-02-04T22:34:36.306Z,99821.17
2018-02-04T22:37:03.940Z,99826.42
2018-02-04T22:39:31.495Z,99831.03
2018-02-04T22:41:59.103Z,99831.10
2018-02-04T22:44:26.653Z,99833.83
2018-02-04T22:46:54.260Z,99841.47
2018-02-04T22:49:21.864Z,99843.09
2018-02-04T22:51:49.904Z,99842.70
2018-02-04T22:54:17.867Z,99841.95
2018-02-04T22:56:45.505Z,99840.34
2018-02-04T22:59:13.114Z,99847.87
2018-02-04T23:01:40.991Z,99842.95
2018-02-04T23:04:08.750Z,99844.89
2018-02-04T23:06:36.505Z,99848.45
2018-02-04T23:09:04.172Z,99852.83
2018-02-04T23:11:31.806Z,99848.94
2018-02-04T23:14:00.112Z,99853.40
2018-02-04T23:16:27.659Z,99862.56
2018-02-04T23:18:55.255Z,99866.08
2018-02-04T23:21:23.403Z,99861.84
2018-02-04T23:23:51.363Z,99868.48
2018-02-04T23:26:18.920Z,99865.11
2018-02-04T23:28:46.511Z,99856.39
2018-02-04T23:31:14.103Z,99856.89
2018-02-04T23:33:41.973Z,99861.88
2018-02-04T23:36:09.559Z,99861.98
2018-02-04T23:38:37.103Z,99871.09
2018-02-04T23:41:05.168Z,99873.11
2018-02-04T23:43:32.771Z,99872.66
2018-02-04T23:46:00.350Z,99877.14
2018-02-04T23:48:29.289Z,99878.19
2018-02-04T23:50:56.891Z,99882.73
2018-02-04T23:53:24.476Z,99875.81
2018-02-04T23:55:52.059Z,99881.63
2018-02-04T23:58:19.608Z,99878.52
